Neil Armstrong — WARL — position and weather

sailwx.info

Track history (hours):
 
Tides and Currents Weather Stations Pressure Air Temp Water Temp Dewpoint Dewpoint Depression Visibility Wind Speed Wind Dir Waves Ship Positions

Oceanographic research ship Neil Armstrong (United States)

Owner: Woods Hole Oceanographic Institution, Woods Hole, MA. More information available from US FCC via Universal Licensing System and Coast Guard Vessel Documentation Center.

Last reported at 2017-Dec-16 23:00 UTC. Time now 2017-Dec-17 00:53 UTC.
Position N 41°30' W 070°42'.

Length 72 m; draft 4.4 m.

Type: Ship. MMSI: 338767000.

Water temperature 5.7 ° C

Date/timePositionNaut miles runAvg speedWind from/ knotsBaromVisibWave heightAir tempDewpointWater temp
2017-Dec-16 23:00N 41°30' W 070°42'0 0.0 5.7
2017-Dec-16 22:00N 41°30' W 070°42'0 0.0 5.7
2017-Dec-16 21:00N 41°30' W 070°42'0 0.0 5.9
2017-Dec-16 20:00N 41°30' W 070°42'0 0.0 5.8
2017-Dec-16 19:00N 41°30' W 070°42'0 0.0 5.7
2017-Dec-16 18:00N 41°30' W 070°42'0 0.0 5.7
2017-Dec-16 17:00N 41°30' W 070°42'0 0.0 5.5
2017-Dec-16 16:00N 41°30' W 070°42'0 0.0 5.4
2017-Dec-16 15:00N 41°30' W 070°42'0 0.0 5.4
2017-Dec-16 14:00N 41°30' W 070°42'0 0.0 5.5
2017-Dec-16 13:00N 41°30' W 070°42'0 0.0 280 / 231013.4 -1.8-7.5 5.6
2017-Dec-16 12:00N 41°30' W 070°42'0 0.0 260 / 171013.0 -2.6-8.0 5.6
2017-Dec-16 11:00N 41°30' W 070°42'0 0.0 280 / 171012.1 -2.6-7.9 5.6
2017-Dec-16 10:00N 41°30' W 070°42'0 0.0 290 / 211011.3 -2.6-7.8 5.6
2017-Dec-16 09:00N 41°30' W 070°42'0 0.0 290 / 161010.4 -2.9-7.7 6.1
2017-Dec-16 08:00N 41°30' W 070°42'0 0.0 290 / 161010.2 -2.7-7.1 6.1
2017-Dec-16 07:00N 41°30' W 070°42'0 0.0 290 / 151009.8 -2.9-6.3 6.2
2017-Dec-16 06:00N 41°30' W 070°42'0 0.0 300 / 121009.1 -3.0-5.3 6.2
2017-Dec-16 05:00N 41°30' W 070°42'0 0.0 360 / 61009.1 -2.7-4.5 6.3
2017-Dec-16 04:00N 41°30' W 070°42'0 0.0 350 / 71009.5 -2.5-4.3 5.8
2017-Dec-16 03:00N 41°30' W 070°42'0 0.0 350 / 41009.8 -1.8-3.6 5.7
2017-Dec-16 02:00N 41°30' W 070°42'0 0.0 030 / 41010.1 -2.6-4.5 5.8
2017-Dec-16 01:00N 41°30' W 070°42'0 0.0 070 / 31011.0 -2.7-4.8 5.8
2017-Dec-16 00:00N 41°30' W 070°42'0 0.0 080 / 21012.0 -2.8-5.6 5.9
2017-Dec-15 23:00N 41°30' W 070°42'0 0.0 080 / 31012.4 -2.2-8.4 5.9
2017-Dec-15 22:00N 41°30' W 070°42'0 0.0 080 / 41012.4 -2.1-8.8 6.0
2017-Dec-15 21:00N 41°30' W 070°42'0 0.0 010 / 31013.6 -1.4-7.9 6.2
2017-Dec-15 20:00N 41°30' W 070°42'0 0.0 280 / 31015.2 -1.6-8.7 6.1
2017-Dec-15 19:00N 41°30' W 070°42'0 0.0 280 / 31015.8 -2.0-10.0 6.1
2017-Dec-15 18:00N 41°30' W 070°42'0 0.0 310 / 21016.4 -2.2-10.1 6.0
2017-Dec-15 17:00N 41°30' W 070°42'0 0.0 250 / 31017.7 -2.6-11.1 6.0
2017-Dec-15 16:00N 41°30' W 070°42'0 0.0 260 / 41019.2 -3.1-10.9 5.9
2017-Dec-15 15:00N 41°30' W 070°42'0 0.0 210 / 11020.4 -3.6-12.7 5.9
2017-Dec-15 14:00N 41°30' W 070°42'0 0.0 280 / 21020.0 -4.6-14.0 5.8
2017-Dec-15 13:00N 41°30' W 070°42'0 0.0 310 / 71019.2 -5.0-13.2 5.8
2017-Dec-15 12:00N 41°30' W 070°42'0 0.0 280 / 31019.1 -5.3-12.8 5.8
2017-Dec-15 11:00N 41°30' W 070°42'0 0.0 310 / 71018.7 -5.4-13.4 5.9
2017-Dec-15 10:00N 41°30' W 070°42'0 0.0 310 / 61018.5 -5.5-13.2 6.0
2017-Dec-15 09:00N 41°30' W 070°42'0 0.0 280 / 111018.2 -5.2-12.8 5.9
2017-Dec-15 08:00N 41°30' W 070°42'0 0.0 290 / 71018.4 -5.1-11.9 6.3
2017-Dec-15 07:00N 41°30' W 070°42'0 0.0 280 / 141017.9 -5.6-13.3 6.3
2017-Dec-15 06:00N 41°30' W 070°42'0 0.0 310 / 141017.0 -5.5-13.3 6.3
2017-Dec-15 05:00N 41°30' W 070°42'0 0.0 290 / 151016.8 -5.3-13.4 6.4
2017-Dec-15 04:00N 41°30' W 070°42'0 0.0 280 / 181016.4 -5.1-13.4 6.0
2017-Dec-15 03:00N 41°30' W 070°42'0 0.0 290 / 131015.8 -4.7-13.6 6.1
2017-Dec-15 02:00N 41°30' W 070°42'0 0.0
2017-Dec-15 01:00N 41°30' W 070°42'0 0.0 290 / 241013.7 6.1
2017-Dec-15 00:00N 41°30' W 070°42'0 0.0 290 / 191012.3 -2.9-12.6 6.3
2017-Dec-14 23:00N 41°30' W 070°42'0 0.0 290 / 221010.8 -2.0-11.4 6.3
2017-Dec-14 22:00N 41°30' W 070°42'0 0.0 300 / 161009.5 -1.1-9.6 6.4
2017-Dec-14 21:00N 41°30' W 070°42'0 0.0 290 / 201007.8 -1.3-9.2 6.4
2017-Dec-14 20:00N 41°30' W 070°42'0 0.0 280 / 141006.5 -1.6-8.7 6.8
2017-Dec-14 19:00N 41°30' W 070°42'0 0.0 300 / 81005.2 -2.8-9.1 7.0
2017-Dec-14 18:00N 41°30' W 070°42'0 0.0 330 / 81004.4 -3.5-8.1 6.9
2017-Dec-14 17:00N 41°30' W 070°42'0 0.0 330 / 141003.8 -3.9-8.5 8.3
2017-Dec-14 16:00N 41°30' W 070°42'0 0.0 330 / 131003.6 -4.5-7.5 8.4
2017-Dec-14 15:00N 41°30' W 070°42'0 0.0 350 / 111003.5 -4.7-7.2 8.1
2017-Dec-14 14:00N 41°30' W 070°42'0 0.0 350 / 141002.9 -4.8-6.7 7.8
2017-Dec-14 13:00N 41°30' W 070°42'0 0.0 010 / 131001.7 -4.1-6.1 7.9
2017-Dec-14 12:00N 41°30' W 070°42'0 0.0 -4.3-6.6
2017-Dec-14 11:00N 41°30' W 070°42'0 0.0 1002.5 -3.7-6.0 8.3
2017-Dec-14 10:00N 41°30' W 070°42'0 0.0 310 / 71002.6 -3.7-6.5 8.2
2017-Dec-14 09:00N 41°30' W 070°42'0 0.0 280 / 131002.7 -3.2-8.5 8.5
2017-Dec-14 08:00N 41°30' W 070°42'0 0.0 280 / 201003.5 -2.9-11.2 8.8
2017-Dec-14 07:00N 41°30' W 070°42'0 0.0 280 / 201003.6 -2.4-13.5 8.9
2017-Dec-14 06:00N 41°30' W 070°42'0 0.0 280 / 201003.1 -2.5-13.7 8.8
2017-Dec-14 05:00N 41°30' W 070°42'0 0.0 280 / 241002.8 -2.5-13.2 8.5
2017-Dec-14 04:00N 41°30' W 070°42'0 0.0 280 / 251001.9 -2.5-14.1 8.3
2017-Dec-14 03:00N 41°30' W 070°42'0 0.0 290 / 241001.2 -2.3-12.0 8.2
2017-Dec-14 02:00N 41°30' W 070°42'0 0.0 270 / 291000.7 -2.2-13.0 8.1
2017-Dec-14 01:00N 41°30' W 070°42'0 0.0 290 / 281000.3 -2.1-11.8 8.2
2017-Dec-14 00:00N 41°30' W 070°42'0 0.0 270 / 33999.4 -2.1-12.7 8.4
2017-Dec-13 23:00N 41°30' W 070°42'0 0.0 290 / 34998.2 -2.2-11.6 8.9
2017-Dec-13 22:00N 41°30' W 070°42'0 0.0 280 / 34996.8 -2.2-12.5 8.9
2017-Dec-13 21:00N 41°30' W 070°42'7 7.5 280 / 25995.7 -2.9-11.8 8.9
2017-Dec-13 20:00N 41°24' W 070°48'0 0.0 290 / 30995.2 -2.8-11.5 9.7
2017-Dec-13 19:00N 41°24' W 070°48'0 0.0 290 / 40994.0 -3.5-14.3 9.2
2017-Dec-13 18:00N 41°24' W 070°48'0 0.0 290 / 28994.0 -3.5-10.1 9.2
2017-Dec-13 17:00N 41°24' W 070°48'0 0.0 290 / 29993.1 -3.9-13.4 9.3
2017-Dec-13 16:00N 41°24' W 070°48'0 0.0 290 / 31993.5 -3.8-10.0 9.6
2017-Dec-13 15:00N 41°24' W 070°48'0 0.0 290 / 26993.7 -4.0-11.4 9.5
2017-Dec-13 14:00N 41°24' W 070°48'0 0.0 280 / 28993.6 -3.6-10.9 9.9
2017-Dec-13 13:00N 41°24' W 070°48'0 0.0 280 / 22993.2 -3.7-11.2 9.9
2017-Dec-13 12:00N 41°24' W 070°48'0 0.0 280 / 23992.3 -2.9-11.910.1
2017-Dec-13 11:00N 41°24' W 070°48'0 0.0 280 / 26992.2 -2.1-11.110.0
2017-Dec-13 10:00N 41°24' W 070°48'0 0.0 300 / 30991.6 -1.3-8.3 9.7
2017-Dec-13 09:00N 41°24' W 070°48'0 0.0 290 / 20991.4 -0.5-5.9 9.6
2017-Dec-13 08:00N 41°24' W 070°48'0 0.0 320 / 30990.0 0.6-4.9 9.5
2017-Dec-13 07:00N 41°24' W 070°48'1110.8 300 / 23991.4 2.0-2.5 9.7
2017-Dec-13 06:00N 41°18' W 071°00'8 7.5 290 / 23991.7 3.3-1.310.2
2017-Dec-13 05:00N 41°12' W 071°06'1110.8 300 / 19991.8 3.7-1.411.4
2017-Dec-13 04:00N 41°06' W 071°18'8 7.5 310 / 27992.5 5.1-0.312.0
2017-Dec-13 03:00N 41°00' W 071°24'1515.0 280 / 25993.0 6.5 1.211.5
2017-Dec-13 02:00N 40°48' W 071°36'8 7.5 290 / 21993.9 6.6 1.012.0
2017-Dec-13 01:00N 40°42' W 071°42'1110.9 300 / 26994.1 6.8 1.712.4
2017-Dec-13 00:00N 40°36' W 071°54'1110.9 290 / 26994.9 7.7 2.612.0
2017-Dec-12 23:00N 40°30' W 072°06'1515.1 300 / 25994.8 8.5 3.112.3
2017-Dec-12 22:00N 40°18' W 072°18'8 7.5 280 / 23994.8 9.7 3.612.5
2017-Dec-12 21:00N 40°12' W 072°24'1515.1 250 / 17994.9 10.8 4.912.6
2017-Dec-12 20:00N 40°00' W 072°36'1111.0 260 / 23995.6 10.8 5.813.1
2017-Dec-12 19:00N 39°54' W 072°48'1515.1 210 / 22996.5 12.6 6.113.0
2017-Dec-12 18:00N 39°42' W 073°00'1111.0 200 / 22997.5 12.5 6.512.0
2017-Dec-12 17:00N 39°36' W 073°12'1312.9 200 / 22999.0 12.5 5.711.9
2017-Dec-12 16:00N 39°24' W 073°18'1515.2 190 / 231000.9 12.5 6.112.3
2017-Dec-12 15:00N 39°12' W 073°30'8 7.6 190 / 251002.8 12.4 5.712.9
2017-Dec-12 14:00N 39°06' W 073°36'1515.2 190 / 231003.8 12.1 4.612.9
2017-Dec-12 13:00N 38°54' W 073°48'8 7.6 190 / 221004.7 11.8 4.713.0
2017-Dec-12 12:00N 38°48' W 073°54'1212.0 180 / 221005.8 11.3 3.613.1
2017-Dec-12 11:00N 38°36' W 073°54'1212.0 200 / 191007.8 11.2 4.114.4
2017-Dec-12 10:00N 38°24' W 073°54'1212.0 210 / 181009.0 11.0 3.914.5
2017-Dec-12 09:00N 38°12' W 073°54'1312.9 200 / 191010.0 10.8 3.214.4
2017-Dec-12 08:00N 38°00' W 073°48'1212.0 200 / 171011.5 10.6 2.114.4
2017-Dec-12 07:00N 37°48' W 073°48'6 6.0 180 / 181012.5 10.7 1.515.3
2017-Dec-12 06:00N 37°42' W 073°48'0 0.0 190 / 81013.8 10.3 2.014.9
2017-Dec-12 05:00N 37°42' W 073°48'6 6.0 160 / 71015.0 9.8 2.015.2
2017-Dec-12 04:00N 37°36' W 073°48'0 0.0 140 / 101015.4 9.2 0.315.7
2017-Dec-12 03:00N 37°36' W 073°48'6 6.0 140 / 91016.7 8.9 0.615.6
2017-Dec-12 02:00N 37°30' W 073°48'0 0.0 140 / 61016.6 8.3-0.915.2
2017-Dec-12 01:00N 37°30' W 073°48'0 0.0 120 / 21017.3 8.1-1.915.2
2017-Dec-12 00:00N 37°30' W 073°48'6 6.0 170 / 11017.8 8.1-2.015.1
2017-Dec-11 23:00N 37°24' W 073°48'0 0.0 020 / 31017.3 8.1-2.415.3
2017-Dec-11 22:00N 37°24' W 073°48'5 4.8 350 / 31017.6 8.1-1.715.3
2017-Dec-11 21:00N 37°24' W 073°54'1414.3 050 / 41017.1 8.1-3.015.5
2017-Dec-11 20:00N 37°24' W 074°12'1111.3 020 / 51017.5 8.2-2.016.5
2017-Dec-11 19:00N 37°18' W 074°24'10 9.5 040 / 51017.6 7.9-2.715.3
2017-Dec-11 18:00N 37°18' W 074°36'5 4.8 020 / 51017.9 7.9-3.114.5
2017-Dec-11 17:00N 37°18' W 074°30'0 0.0 360 / 81018.3 7.6-2.814.7
2017-Dec-11 16:00N 37°18' W 074°30'6 6.0 350 / 91019.1 7.2-0.714.5
2017-Dec-11 15:00N 37°12' W 074°30'0 0.0 310 / 71019.6 7.1-0.915.0
2017-Dec-11 14:00N 37°12' W 074°30'0 0.0 300 / 161019.5 7.3-0.114.7
2017-Dec-11 13:00N 37°12' W 074°30'0 0.0 290 / 211018.7 7.8-0.415.1
2017-Dec-11 12:00N 37°12' W 074°30'0 0.0 250 / 121018.5 8.7-1.215.0
2017-Dec-11 11:00N 37°12' W 074°30'6 6.0 270 / 221017.7 8.6-0.815.0
2017-Dec-11 10:00N 37°18' W 074°30'0 0.0 270 / 191018.0 8.6-1.414.8
2017-Dec-11 09:00N 37°18' W 074°30'0 0.0 260 / 201017.8 7.8-1.515.0
2017-Dec-11 08:00N 37°18' W 074°30'5 4.8 260 / 231018.5 7.4-1.814.8
2017-Dec-11 07:00N 37°18' W 074°36'5 4.8 260 / 201018.9 7.1-2.815.0
2017-Dec-11 06:00N 37°18' W 074°30'6 6.0 260 / 131019.4 6.9 0.115.0
2017-Dec-11 05:00N 37°12' W 074°30'6 6.0 260 / 201019.4 6.7-0.415.0
2017-Dec-11 04:00N 37°18' W 074°30'6 6.0 260 / 171020.2 6.7-2.315.0
2017-Dec-11 03:00N 37°12' W 074°30'0 0.0 260 / 131020.4 6.9-2.115.0
2017-Dec-11 02:00N 37°12' W 074°30'0 0.0 260 / 181020.4 7.4 0.114.9
2017-Dec-11 01:00N 37°12' W 074°30'0 0.0 250 / 181019.8 6.9-2.315.1
2017-Dec-11 00:00N 37°12' W 074°30'6 6.0 260 / 121020.2 6.5-1.815.2
2017-Dec-10 23:00N 37°18' W 074°30'6 6.0 260 / 151019.9 6.0-3.315.0
2017-Dec-10 22:00N 37°12' W 074°30'0 0.0 260 / 121019.2 5.5-3.215.1
2017-Dec-10 21:00N 37°12' W 074°30'0 0.0 260 / 91018.9 5.6-2.715.2
2017-Dec-10 20:00N 37°12' W 074°30'0 0.0 290 / 181018.5 5.6-3.715.2
2017-Dec-10 19:00N 37°12' W 074°30'0 0.0 290 / 191018.1 5.7-1.715.2
2017-Dec-10 18:00N 37°12' W 074°30'0 0.0 290 / 191017.9 5.9-2.015.2
2017-Dec-10 17:00N 37°12' W 074°30'0 0.0 310 / 141018.2 5.3-4.215.2
2017-Dec-10 16:00N 37°12' W 074°30'0 0.0 320 / 191018.7 5.3-5.115.2
2017-Dec-10 15:00N 37°12' W 074°30'0 0.0 330 / 181018.5 5.3-3.815.1
2017-Dec-10 14:00N 37°12' W 074°30'0 0.0 330 / 221017.4 5.2-3.815.1
2017-Dec-10 13:00N 37°12' W 074°30'0 0.0 330 / 201016.7 5.4-4.715.1
2017-Dec-10 12:00N 37°12' W 074°30'0 0.0 310 / 251015.6 5.4-3.915.0
2017-Dec-10 11:00N 37°12' W 074°30'0 0.0 310 / 241014.5 5.5-3.315.2
2017-Dec-10 10:00N 37°12' W 074°30'0 0.0 310 / 281013.0 5.5-1.215.1
2017-Dec-10 09:00N 37°12' W 074°30'0 0.0 310 / 271011.9 5.4-1.315.1
2017-Dec-10 08:00N 37°12' W 074°30'6 6.0 310 / 241011.5 5.5 0.315.1
2017-Dec-10 07:00N 37°18' W 074°30'6 6.0 290 / 221010.4 5.4 1.315.1
2017-Dec-10 06:00N 37°12' W 074°30'0 0.0 300 / 241009.6 5.0 1.415.1
2017-Dec-10 05:00N 37°12' W 074°30'0 0.0 310 / 261009.7 5.3 2.115.3
2017-Dec-10 04:00N 37°12' W 074°30'0 0.0 300 / 231009.1 5.6 2.615.2
2017-Dec-10 03:00N 37°12' W 074°30'6 6.0 310 / 221007.9 5.9 3.015.6
2017-Dec-10 02:00N 37°06' W 074°30'5 4.8 320 / 221007.3 6.4 3.615.1
2017-Dec-10 01:00N 37°06' W 074°36'6 6.0 320 / 251007.1 6.9 4.015.2
2017-Dec-10 00:00N 37°00' W 074°36'5 4.8 310 / 261006.0 7.8 4.915.1
2017-Dec-09 23:00N 37°00' W 074°42'6 6.0 350 / 221004.6 8.3 5.614.9
2017-Dec-09 22:00N 36°54' W 074°42'0 0.0 350 / 281004.0 8.6 6.014.7
2017-Dec-09 21:00N 36°54' W 074°42'5 4.8 360 / 291003.6 8.4 5.216.3
2017-Dec-09 20:00N 36°54' W 074°48'5 4.8 360 / 281003.4 8.5 5.317.4
2017-Dec-09 19:00N 36°54' W 074°54'6 6.0 360 / 281003.4 8.4 5.116.6
2017-Dec-09 18:00N 36°48' W 074°54'5 4.8 010 / 271003.8 9.1 6.116.3
2017-Dec-09 17:00N 36°48' W 075°00'5 4.8 1004.9 9.3 6.215.8
2017-Dec-09 16:00N 36°48' W 075°06'0 0.0 020 / 311004.2 10.2 6.715.0
2017-Dec-09 15:00N 36°48' W 075°06'8 7.7 010 / 311005.9 9.8 7.115.6
2017-Dec-09 14:00N 36°42' W 075°12'13 4.3 020 / 261006.6 10.3 7.115.4
2017-Dec-09 11:00N 36°30' W 075°18'8 7.7 050 / 201007.6 10.6 8.315.0
2017-Dec-09 10:00N 36°24' W 075°12'6 6.0 040 / 281007.3 11.0 8.515.2
2017-Dec-09 09:00N 36°18' W 075°12'8 7.7 030 / 261008.3 11.2 9.315.8
2017-Dec-09 08:00N 36°12' W 075°06'6 6.0 050 / 251009.1 12.0 9.715.8
2017-Dec-09 07:00N 36°06' W 075°06'6 6.0 060 / 271009.3 12.0 9.615.5
2017-Dec-09 06:00N 36°00' W 075°06'8 7.7 030 / 241009.9 11.7 8.516.1
2017-Dec-09 05:00N 35°54' W 075°00'6 6.0 010 / 281011.3 11.4 9.018.2
2017-Dec-09 04:00N 35°48' W 075°00'8 7.7 050 / 281009.5 12.2 9.317.9
2017-Dec-09 03:00N 35°42' W 074°54'6 6.0 050 / 271009.1 12.2 8.318.3
2017-Dec-09 02:00N 35°36' W 074°54'0 0.0 040 / 411009.7 11.7 8.320.4
2017-Dec-09 01:00N 35°36' W 074°54'8 7.7 010 / 381011.8 12.0 8.023.1
2017-Dec-09 00:00N 35°30' W 074°48'6 6.0 360 / 281012.0 12.510.122.8
2017-Dec-08 23:00N 35°24' W 074°48'8 7.7 020 / 191010.2 14.212.025.5
2017-Dec-08 22:00N 35°18' W 074°54'6 6.0 020 / 241009.7 13.911.725.4
2017-Dec-08 21:00N 35°12' W 074°54'0 0.0 010 / 301010.3 14.612.725.8
2017-Dec-08 20:00N 35°12' W 074°54'5 4.9 010 / 291010.7 13.611.725.9
2017-Dec-08 19:00N 35°12' W 075°00'0 0.0 010 / 321011.2 16.014.125.7
2017-Dec-08 18:00N 35°12' W 075°00'0 0.0 060 / 211011.8 15.512.125.1
2017-Dec-08 17:00N 35°12' W 075°00'5 4.9 020 / 251013.3 14.611.825.6
2017-Dec-08 16:00N 35°12' W 075°06'5 4.9 040 / 181015.1 12.410.425.7
2017-Dec-08 15:00N 35°12' W 075°00'0 0.0 1016.9 11.7 8.325.6
2017-Dec-08 14:00N 35°12' W 075°00'5 4.9 1016.7 12.1 9.425.4
2017-Dec-08 13:00N 35°12' W 075°06'8 7.7 020 / 151016.1 12.5 9.525.1
2017-Dec-08 12:00N 35°18' W 075°00'0 0.0 020 / 141017.0 11.6 7.924.0
2017-Dec-08 11:00N 35°18' W 075°00'8 7.7 040 / 121016.4 10.3 6.723.6
2017-Dec-08 10:00N 35°12' W 075°06'0 0.0 040 / 71018.1 9.1 4.823.7
2017-Dec-08 09:00N 35°12' W 075°06'5 4.9 350 / 161018.0 8.9 3.824.3
2017-Dec-08 08:00N 35°12' W 075°00'0 0.0 360 / 241018.4 10.3 5.625.4
2017-Dec-08 07:00N 35°12' W 075°00'5 4.9 340 / 201018.3 11.3 3.425.5
2017-Dec-08 06:00N 35°12' W 075°06'5 4.9 320 / 171018.6 11.5-0.425.6
2017-Dec-08 05:00N 35°12' W 075°00'0 0.0 350 / 141018.5 12.2 3.025.5
2017-Dec-08 04:00N 35°12' W 075°00'0 0.0 360 / 91019.1 11.9-0.225.5
2017-Dec-08 03:00N 35°12' W 075°00'0 0.0 320 / 111019.1 11.8 3.825.5
2017-Dec-08 02:00N 35°12' W 075°00'0 0.0 320 / 61019.0 11.8 4.425.6
2017-Dec-08 01:00N 35°12' W 075°00'0 0.0 350 / 81019.0 12.0 4.525.6
2017-Dec-08 00:00N 35°12' W 075°00'6 6.0 340 / 101018.9 12.1 3.525.4
2017-Dec-07 23:00N 35°06' W 075°00'6 6.0 360 / 61018.8 11.9 3.725.4
2017-Dec-07 22:00N 35°12' W 075°00'8 7.7 330 / 101018.6 11.6 4.225.2
2017-Dec-07 21:00N 35°18' W 074°54'1212.0 350 / 101018.4 11.1 2.023.7
2017-Dec-07 20:00N 35°30' W 074°54'0 0.0 330 / 131018.4 10.6 1.924.1
2017-Dec-07 19:00N 35°30' W 074°54'1313.0 300 / 101018.1 10.4 3.624.1
2017-Dec-07 18:00N 35°18' W 075°00'5 4.9 310 / 91018.7 10.2 4.423.6
2017-Dec-07 17:00N 35°18' W 074°54'6 6.0 330 / 131019.1 10.8 5.924.1
2017-Dec-07 16:00N 35°24' W 074°54'8 7.7 320 / 131019.9 10.8 6.224.1
2017-Dec-07 15:00N 35°30' W 074°48'1313.0 350 / 141020.3 10.1 4.923.7
2017-Dec-07 14:00N 35°42' W 074°54'1111.4 330 / 111020.1 9.5 4.116.8
2017-Dec-07 13:00N 35°48' W 075°06'8 7.7 320 / 131020.1 9.3 3.816.0
2017-Dec-07 12:00N 35°54' W 075°12'1312.9 320 / 121019.7 9.1 3.615.2
2017-Dec-07 11:00N 36°06' W 075°18'1111.4 320 / 71019.2 8.9 3.214.8
2017-Dec-07 10:00N 36°12' W 075°30'1312.9 310 / 81019.0 8.5 2.915.0
2017-Dec-07 09:00N 36°24' W 075°36'0 0.0 300 / 51019.1 8.2 2.414.4
2017-Dec-07 08:00N 36°24' W 075°36'0 0.0 340 / 61019.3 8.3 2.814.5
2017-Dec-07 07:00N 36°24' W 075°36'0 0.0 340 / 61019.0 8.5 3.514.5
2017-Dec-07 06:00N 36°24' W 075°36'0 0.0 330 / 81019.4 8.2 3.914.5
2017-Dec-07 05:00N 36°24' W 075°36'0 0.0 350 / 101019.2 8.2 3.314.5
2017-Dec-07 04:00N 36°24' W 075°36'0 0.0 010 / 121018.4 8.3 3.614.6
2017-Dec-07 03:00N 36°24' W 075°36'0 0.0 020 / 111018.8 8.7 2.514.6
2017-Dec-07 02:00N 36°24' W 075°36'0 0.0 010 / 111019.3 9.1 3.014.6
2017-Dec-07 01:00N 36°24' W 075°36'0 0.0 020 / 111018.8 9.4 2.514.7
2017-Dec-07 00:00N 36°24' W 075°36'0 0.0 020 / 171018.5 10.0 2.314.6
2017-Dec-06 23:00N 36°24' W 075°36'   030 / 151018.5 9.0 3.114.6
Track history (hours):
 
Tides and Currents Weather Stations Pressure Air Temp Water Temp Dewpoint Dewpoint Depression Visibility Wind Speed Wind Dir Waves Ship Positions

Oceanographic research ship Neil Armstrong (United States)

Owner: Woods Hole Oceanographic Institution, Woods Hole, MA. More information available from US FCC via Universal Licensing System and Coast Guard Vessel Documentation Center.

Last reported at 2017-Dec-16 23:00 UTC. Time now 2017-Dec-17 00:53 UTC.
Position N 41°30' W 070°42'.

Length 72 m; draft 4.4 m.

Type: Ship. MMSI: 338767000.

Water temperature 5.7 ° C

Date/timePositionNaut miles runAvg speedWind from/ knotsBaromVisibWave heightAir tempDewpointWater temp
2017-Dec-16 23:00N 41°30' W 070°42'0 0.0 5.7
2017-Dec-16 22:00N 41°30' W 070°42'0 0.0 5.7
2017-Dec-16 21:00N 41°30' W 070°42'0 0.0 5.9
2017-Dec-16 20:00N 41°30' W 070°42'0 0.0 5.8
2017-Dec-16 19:00N 41°30' W 070°42'0 0.0 5.7
2017-Dec-16 18:00N 41°30' W 070°42'0 0.0 5.7
2017-Dec-16 17:00N 41°30' W 070°42'0 0.0 5.5
2017-Dec-16 16:00N 41°30' W 070°42'0 0.0 5.4
2017-Dec-16 15:00N 41°30' W 070°42'0 0.0 5.4
2017-Dec-16 14:00N 41°30' W 070°42'0 0.0 5.5
2017-Dec-16 13:00N 41°30' W 070°42'0 0.0 280 / 231013.4 -1.8-7.5 5.6
2017-Dec-16 12:00N 41°30' W 070°42'0 0.0 260 / 171013.0 -2.6-8.0 5.6
2017-Dec-16 11:00N 41°30' W 070°42'0 0.0 280 / 171012.1 -2.6-7.9 5.6
2017-Dec-16 10:00N 41°30' W 070°42'0 0.0 290 / 211011.3 -2.6-7.8 5.6
2017-Dec-16 09:00N 41°30' W 070°42'0 0.0 290 / 161010.4 -2.9-7.7 6.1
2017-Dec-16 08:00N 41°30' W 070°42'0 0.0 290 / 161010.2 -2.7-7.1 6.1
2017-Dec-16 07:00N 41°30' W 070°42'0 0.0 290 / 151009.8 -2.9-6.3 6.2
2017-Dec-16 06:00N 41°30' W 070°42'0 0.0 300 / 121009.1 -3.0-5.3 6.2
2017-Dec-16 05:00N 41°30' W 070°42'0 0.0 360 / 61009.1 -2.7-4.5 6.3
2017-Dec-16 04:00N 41°30' W 070°42'0 0.0 350 / 71009.5 -2.5-4.3 5.8
2017-Dec-16 03:00N 41°30' W 070°42'0 0.0 350 / 41009.8 -1.8-3.6 5.7
2017-Dec-16 02:00N 41°30' W 070°42'0 0.0 030 / 41010.1 -2.6-4.5 5.8
2017-Dec-16 01:00N 41°30' W 070°42'0 0.0 070 / 31011.0 -2.7-4.8 5.8
2017-Dec-16 00:00N 41°30' W 070°42'0 0.0 080 / 21012.0 -2.8-5.6 5.9
2017-Dec-15 23:00N 41°30' W 070°42'0 0.0 080 / 31012.4 -2.2-8.4 5.9
2017-Dec-15 22:00N 41°30' W 070°42'0 0.0 080 / 41012.4 -2.1-8.8 6.0
2017-Dec-15 21:00N 41°30' W 070°42'0 0.0 010 / 31013.6 -1.4-7.9 6.2
2017-Dec-15 20:00N 41°30' W 070°42'0 0.0 280 / 31015.2 -1.6-8.7 6.1
2017-Dec-15 19:00N 41°30' W 070°42'0 0.0 280 / 31015.8 -2.0-10.0 6.1
2017-Dec-15 18:00N 41°30' W 070°42'0 0.0 310 / 21016.4 -2.2-10.1 6.0
2017-Dec-15 17:00N 41°30' W 070°42'0 0.0 250 / 31017.7 -2.6-11.1 6.0
2017-Dec-15 16:00N 41°30' W 070°42'0 0.0 260 / 41019.2 -3.1-10.9 5.9
2017-Dec-15 15:00N 41°30' W 070°42'0 0.0 210 / 11020.4 -3.6-12.7 5.9
2017-Dec-15 14:00N 41°30' W 070°42'0 0.0 280 / 21020.0 -4.6-14.0 5.8
2017-Dec-15 13:00N 41°30' W 070°42'0 0.0 310 / 71019.2 -5.0-13.2 5.8
2017-Dec-15 12:00N 41°30' W 070°42'0 0.0 280 / 31019.1 -5.3-12.8 5.8
2017-Dec-15 11:00N 41°30' W 070°42'0 0.0 310 / 71018.7 -5.4-13.4 5.9
2017-Dec-15 10:00N 41°30' W 070°42'0 0.0 310 / 61018.5 -5.5-13.2 6.0
2017-Dec-15 09:00N 41°30' W 070°42'0 0.0 280 / 111018.2 -5.2-12.8 5.9
2017-Dec-15 08:00N 41°30' W 070°42'0 0.0 290 / 71018.4 -5.1-11.9 6.3
2017-Dec-15 07:00N 41°30' W 070°42'0 0.0 280 / 141017.9 -5.6-13.3 6.3
2017-Dec-15 06:00N 41°30' W 070°42'0 0.0 310 / 141017.0 -5.5-13.3 6.3
2017-Dec-15 05:00N 41°30' W 070°42'0 0.0 290 / 151016.8 -5.3-13.4 6.4
2017-Dec-15 04:00N 41°30' W 070°42'0 0.0 280 / 181016.4 -5.1-13.4 6.0
2017-Dec-15 03:00N 41°30' W 070°42'0 0.0 290 / 131015.8 -4.7-13.6 6.1
2017-Dec-15 02:00N 41°30' W 070°42'0 0.0
2017-Dec-15 01:00N 41°30' W 070°42'0 0.0 290 / 241013.7 6.1
2017-Dec-15 00:00N 41°30' W 070°42'0 0.0 290 / 191012.3 -2.9-12.6 6.3
2017-Dec-14 23:00N 41°30' W 070°42'0 0.0 290 / 221010.8 -2.0-11.4 6.3
2017-Dec-14 22:00N 41°30' W 070°42'0 0.0 300 / 161009.5 -1.1-9.6 6.4
2017-Dec-14 21:00N 41°30' W 070°42'0 0.0 290 / 201007.8 -1.3-9.2 6.4
2017-Dec-14 20:00N 41°30' W 070°42'0 0.0 280 / 141006.5 -1.6-8.7 6.8
2017-Dec-14 19:00N 41°30' W 070°42'0 0.0 300 / 81005.2 -2.8-9.1 7.0
2017-Dec-14 18:00N 41°30' W 070°42'0 0.0 330 / 81004.4 -3.5-8.1 6.9
2017-Dec-14 17:00N 41°30' W 070°42'0 0.0 330 / 141003.8 -3.9-8.5 8.3
2017-Dec-14 16:00N 41°30' W 070°42'0 0.0 330 / 131003.6 -4.5-7.5 8.4
2017-Dec-14 15:00N 41°30' W 070°42'0 0.0 350 / 111003.5 -4.7-7.2 8.1
2017-Dec-14 14:00N 41°30' W 070°42'0 0.0 350 / 141002.9 -4.8-6.7 7.8
2017-Dec-14 13:00N 41°30' W 070°42'0 0.0 010 / 131001.7 -4.1-6.1 7.9
2017-Dec-14 12:00N 41°30' W 070°42'0 0.0 -4.3-6.6
2017-Dec-14 11:00N 41°30' W 070°42'0 0.0 1002.5 -3.7-6.0 8.3
2017-Dec-14 10:00N 41°30' W 070°42'0 0.0 310 / 71002.6 -3.7-6.5 8.2
2017-Dec-14 09:00N 41°30' W 070°42'0 0.0 280 / 131002.7 -3.2-8.5 8.5
2017-Dec-14 08:00N 41°30' W 070°42'0 0.0 280 / 201003.5 -2.9-11.2 8.8
2017-Dec-14 07:00N 41°30' W 070°42'0 0.0 280 / 201003.6 -2.4-13.5 8.9
2017-Dec-14 06:00N 41°30' W 070°42'0 0.0 280 / 201003.1 -2.5-13.7 8.8
2017-Dec-14 05:00N 41°30' W 070°42'0 0.0 280 / 241002.8 -2.5-13.2 8.5
2017-Dec-14 04:00N 41°30' W 070°42'0 0.0 280 / 251001.9 -2.5-14.1 8.3
2017-Dec-14 03:00N 41°30' W 070°42'0 0.0 290 / 241001.2 -2.3-12.0 8.2
2017-Dec-14 02:00N 41°30' W 070°42'0 0.0 270 / 291000.7 -2.2-13.0 8.1
2017-Dec-14 01:00N 41°30' W 070°42'0 0.0 290 / 281000.3 -2.1-11.8 8.2
2017-Dec-14 00:00N 41°30' W 070°42'0 0.0 270 / 33999.4 -2.1-12.7 8.4
2017-Dec-13 23:00N 41°30' W 070°42'0 0.0 290 / 34998.2 -2.2-11.6 8.9
2017-Dec-13 22:00N 41°30' W 070°42'0 0.0 280 / 34996.8 -2.2-12.5 8.9
2017-Dec-13 21:00N 41°30' W 070°42'7 7.5 280 / 25995.7 -2.9-11.8 8.9
2017-Dec-13 20:00N 41°24' W 070°48'0 0.0 290 / 30995.2 -2.8-11.5 9.7
2017-Dec-13 19:00N 41°24' W 070°48'0 0.0 290 / 40994.0 -3.5-14.3 9.2
2017-Dec-13 18:00N 41°24' W 070°48'0 0.0 290 / 28994.0 -3.5-10.1 9.2
2017-Dec-13 17:00N 41°24' W 070°48'0 0.0 290 / 29993.1 -3.9-13.4 9.3
2017-Dec-13 16:00N 41°24' W 070°48'0 0.0 290 / 31993.5 -3.8-10.0 9.6
2017-Dec-13 15:00N 41°24' W 070°48'0 0.0 290 / 26993.7 -4.0-11.4 9.5
2017-Dec-13 14:00N 41°24' W 070°48'0 0.0 280 / 28993.6 -3.6-10.9 9.9
2017-Dec-13 13:00N 41°24' W 070°48'0 0.0 280 / 22993.2 -3.7-11.2 9.9
2017-Dec-13 12:00N 41°24' W 070°48'0 0.0 280 / 23992.3 -2.9-11.910.1
2017-Dec-13 11:00N 41°24' W 070°48'0 0.0 280 / 26992.2 -2.1-11.110.0
2017-Dec-13 10:00N 41°24' W 070°48'0 0.0 300 / 30991.6 -1.3-8.3 9.7
2017-Dec-13 09:00N 41°24' W 070°48'0 0.0 290 / 20991.4 -0.5-5.9 9.6
2017-Dec-13 08:00N 41°24' W 070°48'0 0.0 320 / 30990.0 0.6-4.9 9.5
2017-Dec-13 07:00N 41°24' W 070°48'1110.8 300 / 23991.4 2.0-2.5 9.7
2017-Dec-13 06:00N 41°18' W 071°00'8 7.5 290 / 23991.7 3.3-1.310.2
2017-Dec-13 05:00N 41°12' W 071°06'1110.8 300 / 19991.8 3.7-1.411.4
2017-Dec-13 04:00N 41°06' W 071°18'8 7.5 310 / 27992.5 5.1-0.312.0
2017-Dec-13 03:00N 41°00' W 071°24'1515.0 280 / 25993.0 6.5 1.211.5
2017-Dec-13 02:00N 40°48' W 071°36'8 7.5 290 / 21993.9 6.6 1.012.0
2017-Dec-13 01:00N 40°42' W 071°42'1110.9 300 / 26994.1 6.8 1.712.4
2017-Dec-13 00:00N 40°36' W 071°54'1110.9 290 / 26994.9 7.7 2.612.0
2017-Dec-12 23:00N 40°30' W 072°06'1515.1 300 / 25994.8 8.5 3.112.3
2017-Dec-12 22:00N 40°18' W 072°18'8 7.5 280 / 23994.8 9.7 3.612.5
2017-Dec-12 21:00N 40°12' W 072°24'1515.1 250 / 17994.9 10.8 4.912.6
2017-Dec-12 20:00N 40°00' W 072°36'1111.0 260 / 23995.6 10.8 5.813.1
2017-Dec-12 19:00N 39°54' W 072°48'1515.1 210 / 22996.5 12.6 6.113.0
2017-Dec-12 18:00N 39°42' W 073°00'1111.0 200 / 22997.5 12.5 6.512.0
2017-Dec-12 17:00N 39°36' W 073°12'1312.9 200 / 22999.0 12.5 5.711.9
2017-Dec-12 16:00N 39°24' W 073°18'1515.2 190 / 231000.9 12.5 6.112.3
2017-Dec-12 15:00N 39°12' W 073°30'8 7.6 190 / 251002.8 12.4 5.712.9
2017-Dec-12 14:00N 39°06' W 073°36'1515.2 190 / 231003.8 12.1 4.612.9
2017-Dec-12 13:00N 38°54' W 073°48'8 7.6 190 / 221004.7 11.8 4.713.0
2017-Dec-12 12:00N 38°48' W 073°54'1212.0 180 / 221005.8 11.3 3.613.1
2017-Dec-12 11:00N 38°36' W 073°54'1212.0 200 / 191007.8 11.2 4.114.4
2017-Dec-12 10:00N 38°24' W 073°54'1212.0 210 / 181009.0 11.0 3.914.5
2017-Dec-12 09:00N 38°12' W 073°54'1312.9 200 / 191010.0 10.8 3.214.4
2017-Dec-12 08:00N 38°00' W 073°48'1212.0 200 / 171011.5 10.6 2.114.4
2017-Dec-12 07:00N 37°48' W 073°48'6 6.0 180 / 181012.5 10.7 1.515.3
2017-Dec-12 06:00N 37°42' W 073°48'0 0.0 190 / 81013.8 10.3 2.014.9
2017-Dec-12 05:00N 37°42' W 073°48'6 6.0 160 / 71015.0 9.8 2.015.2
2017-Dec-12 04:00N 37°36' W 073°48'0 0.0 140 / 101015.4 9.2 0.315.7
2017-Dec-12 03:00N 37°36' W 073°48'6 6.0 140 / 91016.7 8.9 0.615.6
2017-Dec-12 02:00N 37°30' W 073°48'0 0.0 140 / 61016.6 8.3-0.915.2
2017-Dec-12 01:00N 37°30' W 073°48'0 0.0 120 / 21017.3 8.1-1.915.2
2017-Dec-12 00:00N 37°30' W 073°48'6 6.0 170 / 11017.8 8.1-2.015.1
2017-Dec-11 23:00N 37°24' W 073°48'0 0.0 020 / 31017.3 8.1-2.415.3
2017-Dec-11 22:00N 37°24' W 073°48'5 4.8 350 / 31017.6 8.1-1.715.3
2017-Dec-11 21:00N 37°24' W 073°54'1414.3 050 / 41017.1 8.1-3.015.5
2017-Dec-11 20:00N 37°24' W 074°12'1111.3 020 / 51017.5 8.2-2.016.5
2017-Dec-11 19:00N 37°18' W 074°24'10 9.5 040 / 51017.6 7.9-2.715.3
2017-Dec-11 18:00N 37°18' W 074°36'5 4.8 020 / 51017.9 7.9-3.114.5
2017-Dec-11 17:00N 37°18' W 074°30'0 0.0 360 / 81018.3 7.6-2.814.7
2017-Dec-11 16:00N 37°18' W 074°30'6 6.0 350 / 91019.1 7.2-0.714.5
2017-Dec-11 15:00N 37°12' W 074°30'0 0.0 310 / 71019.6 7.1-0.915.0
2017-Dec-11 14:00N 37°12' W 074°30'0 0.0 300 / 161019.5 7.3-0.114.7
2017-Dec-11 13:00N 37°12' W 074°30'0 0.0 290 / 211018.7 7.8-0.415.1
2017-Dec-11 12:00N 37°12' W 074°30'0 0.0 250 / 121018.5 8.7-1.215.0
2017-Dec-11 11:00N 37°12' W 074°30'6 6.0 270 / 221017.7 8.6-0.815.0
2017-Dec-11 10:00N 37°18' W 074°30'0 0.0 270 / 191018.0 8.6-1.414.8
2017-Dec-11 09:00N 37°18' W 074°30'0 0.0 260 / 201017.8 7.8-1.515.0
2017-Dec-11 08:00N 37°18' W 074°30'5 4.8 260 / 231018.5 7.4-1.814.8
2017-Dec-11 07:00N 37°18' W 074°36'5 4.8 260 / 201018.9 7.1-2.815.0
2017-Dec-11 06:00N 37°18' W 074°30'6 6.0 260 / 131019.4 6.9 0.115.0
2017-Dec-11 05:00N 37°12' W 074°30'6 6.0 260 / 201019.4 6.7-0.415.0
2017-Dec-11 04:00N 37°18' W 074°30'6 6.0 260 / 171020.2 6.7-2.315.0
2017-Dec-11 03:00N 37°12' W 074°30'0 0.0 260 / 131020.4 6.9-2.115.0
2017-Dec-11 02:00N 37°12' W 074°30'0 0.0 260 / 181020.4 7.4 0.114.9
2017-Dec-11 01:00N 37°12' W 074°30'0 0.0 250 / 181019.8 6.9-2.315.1
2017-Dec-11 00:00N 37°12' W 074°30'6 6.0 260 / 121020.2 6.5-1.815.2
2017-Dec-10 23:00N 37°18' W 074°30'6 6.0 260 / 151019.9 6.0-3.315.0
2017-Dec-10 22:00N 37°12' W 074°30'0 0.0 260 / 121019.2 5.5-3.215.1
2017-Dec-10 21:00N 37°12' W 074°30'0 0.0 260 / 91018.9 5.6-2.715.2
2017-Dec-10 20:00N 37°12' W 074°30'0 0.0 290 / 181018.5 5.6-3.715.2
2017-Dec-10 19:00N 37°12' W 074°30'0 0.0 290 / 191018.1 5.7-1.715.2
2017-Dec-10 18:00N 37°12' W 074°30'0 0.0 290 / 191017.9 5.9-2.015.2
2017-Dec-10 17:00N 37°12' W 074°30'0 0.0 310 / 141018.2 5.3-4.215.2
2017-Dec-10 16:00N 37°12' W 074°30'0 0.0 320 / 191018.7 5.3-5.115.2
2017-Dec-10 15:00N 37°12' W 074°30'0 0.0 330 / 181018.5 5.3-3.815.1
2017-Dec-10 14:00N 37°12' W 074°30'0 0.0 330 / 221017.4 5.2-3.815.1
2017-Dec-10 13:00N 37°12' W 074°30'0 0.0 330 / 201016.7 5.4-4.715.1
2017-Dec-10 12:00N 37°12' W 074°30'0 0.0 310 / 251015.6 5.4-3.915.0
2017-Dec-10 11:00N 37°12' W 074°30'0 0.0 310 / 241014.5 5.5-3.315.2
2017-Dec-10 10:00N 37°12' W 074°30'0 0.0 310 / 281013.0 5.5-1.215.1
2017-Dec-10 09:00N 37°12' W 074°30'0 0.0 310 / 271011.9 5.4-1.315.1
2017-Dec-10 08:00N 37°12' W 074°30'6 6.0 310 / 241011.5 5.5 0.315.1
2017-Dec-10 07:00N 37°18' W 074°30'6 6.0 290 / 221010.4 5.4 1.315.1
2017-Dec-10 06:00N 37°12' W 074°30'0 0.0 300 / 241009.6 5.0 1.415.1
2017-Dec-10 05:00N 37°12' W 074°30'0 0.0 310 / 261009.7 5.3 2.115.3
2017-Dec-10 04:00N 37°12' W 074°30'0 0.0 300 / 231009.1 5.6 2.615.2
2017-Dec-10 03:00N 37°12' W 074°30'6 6.0 310 / 221007.9 5.9 3.015.6
2017-Dec-10 02:00N 37°06' W 074°30'5 4.8 320 / 221007.3 6.4 3.615.1
2017-Dec-10 01:00N 37°06' W 074°36'6 6.0 320 / 251007.1 6.9 4.015.2
2017-Dec-10 00:00N 37°00' W 074°36'5 4.8 310 / 261006.0 7.8 4.915.1
2017-Dec-09 23:00N 37°00' W 074°42'6 6.0 350 / 221004.6 8.3 5.614.9
2017-Dec-09 22:00N 36°54' W 074°42'0 0.0 350 / 281004.0 8.6 6.014.7
2017-Dec-09 21:00N 36°54' W 074°42'5 4.8 360 / 291003.6 8.4 5.216.3
2017-Dec-09 20:00N 36°54' W 074°48'5 4.8 360 / 281003.4 8.5 5.317.4
2017-Dec-09 19:00N 36°54' W 074°54'6 6.0 360 / 281003.4 8.4 5.116.6
2017-Dec-09 18:00N 36°48' W 074°54'5 4.8 010 / 271003.8 9.1 6.116.3
2017-Dec-09 17:00N 36°48' W 075°00'5 4.8 1004.9 9.3 6.215.8
2017-Dec-09 16:00N 36°48' W 075°06'0 0.0 020 / 311004.2 10.2 6.715.0
2017-Dec-09 15:00N 36°48' W 075°06'8 7.7 010 / 311005.9 9.8 7.115.6
2017-Dec-09 14:00N 36°42' W 075°12'13 4.3 020 / 261006.6 10.3 7.115.4
2017-Dec-09 11:00N 36°30' W 075°18'8 7.7 050 / 201007.6 10.6 8.315.0
2017-Dec-09 10:00N 36°24' W 075°12'6 6.0 040 / 281007.3 11.0 8.515.2
2017-Dec-09 09:00N 36°18' W 075°12'8 7.7 030 / 261008.3 11.2 9.315.8
2017-Dec-09 08:00N 36°12' W 075°06'6 6.0 050 / 251009.1 12.0 9.715.8
2017-Dec-09 07:00N 36°06' W 075°06'6 6.0 060 / 271009.3 12.0 9.615.5
2017-Dec-09 06:00N 36°00' W 075°06'8 7.7 030 / 241009.9 11.7 8.516.1
2017-Dec-09 05:00N 35°54' W 075°00'6 6.0 010 / 281011.3 11.4 9.018.2
2017-Dec-09 04:00N 35°48' W 075°00'8 7.7 050 / 281009.5 12.2 9.317.9
2017-Dec-09 03:00N 35°42' W 074°54'6 6.0 050 / 271009.1 12.2 8.318.3
2017-Dec-09 02:00N 35°36' W 074°54'0 0.0 040 / 411009.7 11.7 8.320.4
2017-Dec-09 01:00N 35°36' W 074°54'8 7.7 010 / 381011.8 12.0 8.023.1
2017-Dec-09 00:00N 35°30' W 074°48'6 6.0 360 / 281012.0 12.510.122.8
2017-Dec-08 23:00N 35°24' W 074°48'8 7.7 020 / 191010.2 14.212.025.5
2017-Dec-08 22:00N 35°18' W 074°54'6 6.0 020 / 241009.7 13.911.725.4
2017-Dec-08 21:00N 35°12' W 074°54'0 0.0 010 / 301010.3 14.612.725.8
2017-Dec-08 20:00N 35°12' W 074°54'5 4.9 010 / 291010.7 13.611.725.9
2017-Dec-08 19:00N 35°12' W 075°00'0 0.0 010 / 321011.2 16.014.125.7
2017-Dec-08 18:00N 35°12' W 075°00'0 0.0 060 / 211011.8 15.512.125.1
2017-Dec-08 17:00N 35°12' W 075°00'5 4.9 020 / 251013.3 14.611.825.6
2017-Dec-08 16:00N 35°12' W 075°06'5 4.9 040 / 181015.1 12.410.425.7
2017-Dec-08 15:00N 35°12' W 075°00'0 0.0 1016.9 11.7 8.325.6
2017-Dec-08 14:00N 35°12' W 075°00'5 4.9 1016.7 12.1 9.425.4
2017-Dec-08 13:00N 35°12' W 075°06'8 7.7 020 / 151016.1 12.5 9.525.1
2017-Dec-08 12:00N 35°18' W 075°00'0 0.0 020 / 141017.0 11.6 7.924.0
2017-Dec-08 11:00N 35°18' W 075°00'8 7.7 040 / 121016.4 10.3 6.723.6
2017-Dec-08 10:00N 35°12' W 075°06'0 0.0 040 / 71018.1 9.1 4.823.7
2017-Dec-08 09:00N 35°12' W 075°06'5 4.9 350 / 161018.0 8.9 3.824.3
2017-Dec-08 08:00N 35°12' W 075°00'0 0.0 360 / 241018.4 10.3 5.625.4
2017-Dec-08 07:00N 35°12' W 075°00'5 4.9 340 / 201018.3 11.3 3.425.5
2017-Dec-08 06:00N 35°12' W 075°06'5 4.9 320 / 171018.6 11.5-0.425.6
2017-Dec-08 05:00N 35°12' W 075°00'0 0.0 350 / 141018.5 12.2 3.025.5
2017-Dec-08 04:00N 35°12' W 075°00'0 0.0 360 / 91019.1 11.9-0.225.5
2017-Dec-08 03:00N 35°12' W 075°00'0 0.0 320 / 111019.1 11.8 3.825.5
2017-Dec-08 02:00N 35°12' W 075°00'0 0.0 320 / 61019.0 11.8 4.425.6
2017-Dec-08 01:00N 35°12' W 075°00'0 0.0 350 / 81019.0 12.0 4.525.6
2017-Dec-08 00:00N 35°12' W 075°00'6 6.0 340 / 101018.9 12.1 3.525.4
2017-Dec-07 23:00N 35°06' W 075°00'6 6.0 360 / 61018.8 11.9 3.725.4
2017-Dec-07 22:00N 35°12' W 075°00'8 7.7 330 / 101018.6 11.6 4.225.2
2017-Dec-07 21:00N 35°18' W 074°54'1212.0 350 / 101018.4 11.1 2.023.7
2017-Dec-07 20:00N 35°30' W 074°54'0 0.0 330 / 131018.4 10.6 1.924.1
2017-Dec-07 19:00N 35°30' W 074°54'1313.0 300 / 101018.1 10.4 3.624.1
2017-Dec-07 18:00N 35°18' W 075°00'5 4.9 310 / 91018.7 10.2 4.423.6
2017-Dec-07 17:00N 35°18' W 074°54'6 6.0 330 / 131019.1 10.8 5.924.1
2017-Dec-07 16:00N 35°24' W 074°54'8 7.7 320 / 131019.9 10.8 6.224.1
2017-Dec-07 15:00N 35°30' W 074°48'1313.0 350 / 141020.3 10.1 4.923.7
2017-Dec-07 14:00N 35°42' W 074°54'1111.4 330 / 111020.1 9.5 4.116.8
2017-Dec-07 13:00N 35°48' W 075°06'8 7.7 320 / 131020.1 9.3 3.816.0
2017-Dec-07 12:00N 35°54' W 075°12'1312.9 320 / 121019.7 9.1 3.615.2
2017-Dec-07 11:00N 36°06' W 075°18'1111.4 320 / 71019.2 8.9 3.214.8
2017-Dec-07 10:00N 36°12' W 075°30'1312.9 310 / 81019.0 8.5 2.915.0
2017-Dec-07 09:00N 36°24' W 075°36'0 0.0 300 / 51019.1 8.2 2.414.4
2017-Dec-07 08:00N 36°24' W 075°36'0 0.0 340 / 61019.3 8.3 2.814.5
2017-Dec-07 07:00N 36°24' W 075°36'0 0.0 340 / 61019.0 8.5 3.514.5
2017-Dec-07 06:00N 36°24' W 075°36'0 0.0 330 / 81019.4 8.2 3.914.5
2017-Dec-07 05:00N 36°24' W 075°36'0 0.0 350 / 101019.2 8.2 3.314.5
2017-Dec-07 04:00N 36°24' W 075°36'0 0.0 010 / 121018.4 8.3 3.614.6
2017-Dec-07 03:00N 36°24' W 075°36'0 0.0 020 / 111018.8 8.7 2.514.6
2017-Dec-07 02:00N 36°24' W 075°36'0 0.0 010 / 111019.3 9.1 3.014.6
2017-Dec-07 01:00N 36°24' W 075°36'0 0.0 020 / 111018.8 9.4 2.514.7
2017-Dec-07 00:00N 36°24' W 075°36'0 0.0 020 / 171018.5 10.0 2.314.6
2017-Dec-06 23:00N 36°24' W 075°36'   030 / 151018.5 9.0 3.114.6

Dump ship's entire track history